Time;durP1;ratioP1;P1;durP2;ratioP2;P2;SDS_P1;SDS_P2;PMS_P1;PMS_P2;Temp;Humidity;BMP_temperature;BMP_pressure;BME280_temperature;BME280_humidity;BME280_pressure;Samples;Min_cycle;Max_cycle;Signal;HPM_P1;HPM_P2
2024/02/09 00:00:11;;;;;;;6.30;2.70;;;10.50;99.90;;;;;;5096409;28;20766;-42
2024/02/09 00:02:39;;;;;;;6.70;3.20;;;10.50;99.90;;;;;;5096723;28;20540;-42
2024/02/09 00:05:05;;;;;;;6.80;2.97;;;10.50;99.90;;;;;;5094590;28;20410;-40
2024/02/09 00:07:31;;;;;;;8.33;3.00;;;10.50;99.90;;;;;;5095805;28;20462;-41
2024/02/09 00:09:58;;;;;;;6.23;3.07;;;10.40;99.90;;;;;;5094888;28;20863;-43
2024/02/09 00:12:25;;;;;;;7.37;2.90;;;10.40;99.90;;;;;;5095203;28;20267;-39
2024/02/09 00:14:51;;;;;;;6.63;2.80;;;10.40;99.90;;;;;;5095156;28;20530;-40
2024/02/09 00:17:16;;;;;;;10.03;3.37;;;10.40;99.90;;;;;;5078235;28;20513;-40
2024/02/09 00:19:42;;;;;;;6.93;3.00;;;10.40;99.90;;;;;;5095660;28;20453;-41
2024/02/09 00:22:08;;;;;;;5.00;2.83;;;10.40;99.90;;;;;;5094800;28;20188;-41
2024/02/09 00:24:33;;;;;;;10.50;3.90;;;10.40;99.90;;;;;;5096455;28;20458;-40
2024/02/09 00:27:00;;;;;;;14.13;3.33;;;10.40;99.90;;;;;;5096476;28;20315;-41
2024/02/09 00:29:26;;;;;;;7.87;3.00;;;10.40;99.90;;;;;;5095298;28;20188;-41
2024/02/09 00:31:52;;;;;;;8.30;3.53;;;10.40;99.90;;;;;;5096677;28;20468;-41
2024/02/09 00:34:18;;;;;;;10.07;3.43;;;10.40;99.90;;;;;;5095459;28;20460;-42
2024/02/09 00:36:47;;;;;;;9.23;3.50;;;10.40;99.90;;;;;;5094831;28;20426;-42
2024/02/09 00:39:14;;;;;;;8.67;2.73;;;10.40;99.90;;;;;;5073623;28;20781;-41
2024/02/09 00:41:40;;;;;;;7.80;2.80;;;10.40;99.90;;;;;;5092903;28;20426;-41
2024/02/09 00:44:05;;;;;;;6.70;2.17;;;10.40;99.90;;;;;;5075324;28;20649;-40
2024/02/09 00:46:32;;;;;;;9.73;3.00;;;10.50;99.90;;;;;;5093915;28;20559;-44
2024/02/09 00:49:02;;;;;;;6.60;2.80;;;10.40;99.90;;;;;;5093814;28;20182;-42
2024/02/09 00:51:28;;;;;;;7.00;2.93;;;10.40;99.90;;;;;;5094781;28;20507;-43
2024/02/09 00:53:54;;;;;;;10.50;3.23;;;10.40;99.90;;;;;;5079122;28;20429;-41
2024/02/09 00:56:20;;;;;;;6.40;2.50;;;10.40;99.90;;;;;;5097031;28;20434;-42
2024/02/09 00:58:45;;;;;;;5.00;2.53;;;10.40;99.90;;;;;;5097324;28;20256;-41
2024/02/09 01:01:12;;;;;;;5.53;2.80;;;10.40;99.90;;;;;;5096928;28;20188;-41
2024/02/09 01:03:37;;;;;;;6.70;2.43;;;10.30;99.90;;;;;;5097127;28;20186;-43
2024/02/09 01:06:04;;;;;;;8.63;3.77;;;10.30;99.90;;;;;;5079264;28;20430;-41
2024/02/09 01:08:30;;;;;;;6.00;2.80;;;10.30;99.90;;;;;;5096142;28;20597;-44
2024/02/09 01:10:55;;;;;;;8.70;3.10;;;10.40;99.90;;;;;;5097114;28;20438;-43
2024/02/09 02:46:25;;;;;;;8.23;2.70;;;9.60;1.00;;;;;;5098424;28;20204;-41
2024/02/09 03:05:24;;;;;;;15.10;4.40;;;9.60;1.00;;;;;;5098703;28;20441;-41
2024/02/09 03:07:52;;;;;;;4.00;2.40;;;9.60;1.00;;;;;;5098067;28;20458;-45
2024/02/09 03:10:18;;;;;;;5.93;2.70;;;9.60;1.00;;;;;;5098710;28;20700;-42
2024/02/09 03:12:44;;;;;;;5.87;2.97;;;9.60;1.00;;;;;;5097033;28;20426;-43
2024/02/09 03:15:10;;;;;;;9.20;2.97;;;9.50;1.00;;;;;;5080126;28;20169;-44
2024/02/09 03:17:39;;;;;;;6.20;2.90;;;9.50;1.00;;;;;;5080287;28;20186;-45
2024/02/09 03:20:06;;;;;;;5.37;2.90;;;9.50;1.00;;;;;;5080271;28;20416;-46
2024/02/09 03:22:32;;;;;;;3.83;3.13;;;9.60;1.00;;;;;;5098284;28;20674;-44
2024/02/09 03:25:02;;;;;;;9.07;2.33;;;9.60;1.00;;;;;;5098529;28;20430;-44
2024/02/09 03:30:49;;;;;;;6.00;2.80;;;9.60;1.00;;;;;;5098193;28;20844;-42
2024/02/09 03:33:14;;;;;;;5.73;2.80;;;9.50;1.00;;;;;;5097695;28;20450;-43
2024/02/09 03:35:40;;;;;;;7.13;2.30;;;9.60;1.00;;;;;;5098351;28;20255;-43
2024/02/09 03:38:06;;;;;;;5.70;3.93;;;9.50;1.00;;;;;;5097722;28;20180;-42
2024/02/09 03:40:32;;;;;;;4.97;2.83;;;9.50;1.00;;;;;;5097814;28;20618;-42
2024/02/09 03:42:58;;;;;;;6.80;3.00;;;9.60;1.00;;;;;;5098320;28;20187;-44
2024/02/09 03:45:23;;;;;;;3.33;2.10;;;9.60;1.00;;;;;;5079814;28;20434;-41
2024/02/09 03:47:51;;;;;;;4.23;2.00;;;9.60;1.00;;;;;;5097574;28;20204;-41
2024/02/09 03:50:16;;;;;;;4.27;2.43;;;9.60;1.00;;;;;;5097991;28;20172;-44
2024/02/09 03:52:44;;;;;;;5.20;2.63;;;9.60;1.00;;;;;;5095970;28;20800;-44
2024/02/09 03:55:16;;;;;;;4.70;2.30;;;9.60;1.00;;;;;;5096862;28;20268;-42
2024/02/09 03:57:44;;;;;;;8.20;2.90;;;9.60;1.00;;;;;;5080821;28;20427;-44
2024/02/09 04:00:13;;;;;;;5.20;2.30;;;9.60;1.00;;;;;;5097400;28;20437;-43
2024/02/09 04:02:39;;;;;;;5.50;2.40;;;9.60;1.00;;;;;;5098016;28;20783;-41
2024/02/09 04:05:05;;;;;;;4.97;2.40;;;9.60;1.00;;;;;;5097572;28;20492;-46
2024/02/09 04:07:30;;;;;;;6.73;2.53;;;9.70;1.00;;;;;;5097725;28;20215;-46
2024/02/09 04:09:56;;;;;;;5.43;2.73;;;9.60;1.00;;;;;;5097664;28;20482;-43
2024/02/09 04:12:21;;;;;;;3.50;2.27;;;9.60;1.00;;;;;;5096700;28;20550;-42
2024/02/09 04:14:47;;;;;;;4.70;2.67;;;9.60;1.00;;;;;;5096009;28;20259;-44
2024/02/09 04:17:13;;;;;;;3.63;2.17;;;9.60;1.00;;;;;;5094722;28;20639;-46
2024/02/09 04:19:38;;;;;;;3.80;2.63;;;9.60;1.00;;;;;;5096036;28;20183;-45
2024/02/09 04:22:08;;;;;;;6.87;2.53;;;9.60;1.00;;;;;;5096248;28;20177;-44
2024/02/09 04:24:36;;;;;;;4.90;2.23;;;9.60;1.00;;;;;;5095349;28;20207;-42
2024/02/09 04:27:02;;;;;;;3.90;2.30;;;9.60;1.00;;;;;;5078174;28;20513;-42
2024/02/09 04:29:28;;;;;;;3.93;2.00;;;9.60;1.00;;;;;;5097494;28;20410;-46
2024/02/09 04:31:55;;;;;;;6.30;2.03;;;9.70;1.00;;;;;;5097278;28;20828;-43
2024/02/09 04:34:21;;;;;;;4.80;2.23;;;9.70;1.00;;;;;;5079889;28;20215;-43
2024/02/09 04:36:47;;;;;;;3.70;1.97;;;9.70;1.00;;;;;;5096140;28;20520;-42
2024/02/09 04:39:14;;;;;;;3.00;1.97;;;9.70;1.00;;;;;;5095949;28;20326;-49
2024/02/09 04:41:44;;;;;;;3.20;2.00;;;9.70;1.00;;;;;;5096970;28;20536;-43
2024/02/09 04:44:10;;;;;;;3.20;1.73;;;9.70;1.00;;;;;;5096833;28;20434;-41
2024/02/09 04:46:36;;;;;;;3.43;1.97;;;9.70;1.00;;;;;;5096764;28;20466;-42
2024/02/09 04:49:06;;;;;;;3.63;1.93;;;9.70;1.00;;;;;;5096136;28;20185;-41
2024/02/09 04:51:35;;;;;;;3.27;2.40;;;9.70;1.00;;;;;;5095379;28;20490;-41
2024/02/09 04:54:01;;;;;;;3.57;2.00;;;9.70;1.00;;;;;;5095647;28;20749;-42
2024/02/09 04:56:32;;;;;;;4.50;2.20;;;9.70;1.00;;;;;;5096529;28;20398;-41
2024/02/09 04:58:58;;;;;;;4.60;1.77;;;9.70;1.00;;;;;;5096400;28;20180;-42
2024/02/09 05:01:27;;;;;;;5.07;1.70;;;9.70;1.00;;;;;;5095886;28;20438;-47
2024/02/09 05:04:01;;;;;;;2.90;2.40;;;9.80;1.00;;;;;;5095670;28;20812;-44
2024/02/09 05:06:28;;;;;;;2.27;2.00;;;9.70;1.00;;;;;;5095362;28;20716;-41
2024/02/09 05:08:55;;;;;;;2.03;1.60;;;9.70;1.00;;;;;;5078368;28;20411;-41
2024/02/09 05:11:22;;;;;;;2.30;1.77;;;9.80;1.00;;;;;;5079177;28;20399;-41
2024/02/09 05:13:50;;;;;;;3.73;2.00;;;9.70;1.00;;;;;;5095106;28;20435;-43
2024/02/09 05:16:17;;;;;;;2.97;2.10;;;9.70;1.00;;;;;;5093577;28;20418;-40
2024/02/09 05:18:43;;;;;;;2.60;2.00;;;9.70;1.00;;;;;;5093380;28;20442;-41
2024/02/09 05:21:08;;;;;;;2.80;2.27;;;9.70;1.00;;;;;;5093677;28;20465;-42
2024/02/09 05:23:34;;;;;;;2.17;1.70;;;9.70;1.00;;;;;;5095256;28;20674;-45
2024/02/09 05:26:00;;;;;;;2.83;1.83;;;9.70;1.00;;;;;;5093033;28;20624;-42
2024/02/09 05:28:25;;;;;;;3.03;1.83;;;9.70;1.00;;;;;;5075761;28;20257;-41
2024/02/09 05:30:51;;;;;;;3.93;1.97;;;9.70;1.00;;;;;;5092505;28;20494;-41
2024/02/09 05:33:17;;;;;;;2.13;1.30;;;9.70;1.00;;;;;;5094093;28;20176;-43
2024/02/09 05:35:42;;;;;;;2.20;1.60;;;9.70;1.00;;;;;;5077043;28;20184;-40
2024/02/09 05:38:08;;;;;;;3.83;1.87;;;9.80;1.00;;;;;;5095714;28;20180;-42
2024/02/09 05:40:34;;;;;;;3.67;1.63;;;9.80;1.00;;;;;;5095725;28;20177;-42
2024/02/09 05:43:00;;;;;;;4.10;1.67;;;9.80;1.00;;;;;;5095734;28;20215;-41
2024/02/09 05:45:26;;;;;;;2.77;1.83;;;9.80;1.00;;;;;;5092023;28;20631;-41
2024/02/09 05:47:52;;;;;;;6.30;1.90;;;9.70;1.00;;;;;;5091832;28;20454;-40
2024/02/09 05:50:21;;;;;;;4.17;2.47;;;9.70;1.00;;;;;;5094238;28;20695;-42
2024/02/09 05:52:49;;;;;;;3.50;1.80;;;9.70;1.00;;;;;;5079403;28;20770;-43
2024/02/09 05:55:15;;;;;;;3.47;2.17;;;9.80;1.00;;;;;;5097231;28;20872;-40
2024/02/09 05:57:42;;;;;;;1.40;1.30;;;9.70;1.00;;;;;;5097643;28;20445;-41
2024/02/09 06:00:14;;;;;;;2.90;2.00;;;9.70;1.00;;;;;;5098919;28;20529;-41
2024/02/09 06:02:41;;;;;;;4.50;2.00;;;9.70;1.00;;;;;;5097165;28;20407;-41
2024/02/09 06:05:07;;;;;;;3.10;2.33;;;9.70;1.00;;;;;;5096970;28;20520;-43
2024/02/09 06:07:34;;;;;;;3.00;1.80;;;9.70;1.00;;;;;;5078965;28;20577;-40
2024/02/09 06:10:03;;;;;;;3.50;1.60;;;9.70;1.00;;;;;;5097686;28;20880;-41
2024/02/09 06:12:30;;;;;;;2.20;1.60;;;9.70;1.00;;;;;;5095048;28;20765;-41
2024/02/09 06:14:59;;;;;;;3.07;1.70;;;9.70;1.00;;;;;;5096491;28;20497;-41
2024/02/09 06:17:25;;;;;;;1.77;1.30;;;9.70;1.00;;;;;;5096000;28;20698;-42
2024/02/09 06:19:51;;;;;;;1.90;1.40;;;9.70;1.00;;;;;;5097141;28;20934;-42
2024/02/09 06:22:17;;;;;;;3.00;1.43;;;9.80;1.00;;;;;;5095119;28;20528;-41
2024/02/09 06:24:42;;;;;;;2.30;1.60;;;9.80;1.00;;;;;;5097913;28;20218;-41
2024/02/09 06:27:08;;;;;;;2.77;1.60;;;9.80;1.00;;;;;;5097582;28;20216;-42
2024/02/09 06:29:34;;;;;;;2.90;1.43;;;9.70;1.00;;;;;;5096800;28;20174;-42
2024/02/09 06:31:59;;;;;;;1.27;1.00;;;9.70;1.00;;;;;;5096122;28;20226;-43
2024/02/09 06:34:25;;;;;;;1.77;1.20;;;9.70;1.00;;;;;;5097600;28;20172;-42
2024/02/09 06:36:50;;;;;;;1.77;1.10;;;9.70;1.00;;;;;;5095843;28;20278;-43
2024/02/09 06:39:16;;;;;;;2.60;1.40;;;9.70;1.00;;;;;;5096586;28;20420;-41
2024/02/09 06:41:42;;;;;;;3.30;1.23;;;9.70;1.00;;;;;;5097018;28;20507;-45
2024/02/09 06:44:08;;;;;;;1.70;1.20;;;9.80;1.00;;;;;;5097773;28;20632;-43
2024/02/09 06:46:33;;;;;;;1.43;1.23;;;9.70;1.00;;;;;;5094220;28;20493;-43
2024/02/09 06:49:00;;;;;;;3.03;1.40;;;9.70;1.00;;;;;;5074163;28;20208;-40
2024/02/09 06:51:27;;;;;;;2.00;1.20;;;9.70;1.00;;;;;;5090777;28;20330;-42
2024/02/09 06:53:55;;;;;;;1.50;1.00;;;9.70;1.00;;;;;;5090445;28;20511;-41
2024/02/09 06:56:24;;;;;;;2.23;1.80;;;9.70;1.00;;;;;;5091575;28;20517;-41
2024/02/09 06:58:52;;;;;;;1.97;1.30;;;9.70;1.00;;;;;;5091514;28;20427;-41
2024/02/09 07:01:18;;;;;;;1.73;1.40;;;9.70;1.00;;;;;;5088189;28;20492;-40
2024/02/09 07:03:44;;;;;;;2.43;1.50;;;9.70;1.00;;;;;;5089215;28;20532;-43
2024/02/09 07:06:10;;;;;;;4.23;1.60;;;9.70;1.00;;;;;;5072427;28;20704;-41
2024/02/09 07:08:52;;;;;;;2.60;1.50;;;9.70;1.00;;;;;;5093441;28;20429;-41
2024/02/09 07:11:18;;;;;;;2.33;1.57;;;9.70;1.00;;;;;;5078812;28;20248;-43
2024/02/09 07:13:43;;;;;;;1.33;1.23;;;9.70;1.00;;;;;;5077037;28;20418;-42
2024/02/09 07:16:09;;;;;;;2.70;1.20;;;9.70;1.00;;;;;;5078515;28;20184;-39
2024/02/09 07:18:38;;;;;;;1.90;1.60;;;9.70;1.00;;;;;;5095139;28;20535;-40
2024/02/09 07:21:05;;;;;;;3.03;1.70;;;9.70;1.00;;;;;;5095178;28;20192;-42
2024/02/09 07:23:31;;;;;;;2.43;1.70;;;9.70;1.00;;;;;;5095590;28;20411;-42
2024/02/09 07:25:57;;;;;;;1.80;1.30;;;9.70;1.00;;;;;;5094823;28;20437;-42
2024/02/09 07:28:23;;;;;;;2.80;1.80;;;9.80;1.00;;;;;;5076022;28;20563;-43
2024/02/09 07:30:49;;;;;;;2.93;1.90;;;9.80;1.00;;;;;;5077762;28;20434;-40
2024/02/09 07:33:17;;;;;;;3.53;1.63;;;9.80;1.00;;;;;;5077318;28;20173;-41
2024/02/09 07:35:46;;;;;;;1.80;1.60;;;9.80;1.00;;;;;;5095587;28;20169;-44
2024/02/09 07:38:16;;;;;;;6.53;1.90;;;9.80;1.00;;;;;;5097358;28;20917;-41
2024/02/09 07:40:42;;;;;;;3.70;1.50;;;9.90;1.00;;;;;;5078307;28;20753;-42
2024/02/09 07:43:08;;;;;;;3.00;1.83;;;9.90;1.00;;;;;;5097198;28;20718;-42
2024/02/09 07:45:35;;;;;;;2.77;1.60;;;9.90;1.00;;;;;;5077856;28;20430;-41
2024/02/09 07:48:01;;;;;;;1.60;1.17;;;9.90;1.00;;;;;;5095475;28;20230;-43
2024/02/09 07:50:27;;;;;;;4.47;1.63;;;9.90;1.00;;;;;;5095081;28;20466;-42
2024/02/09 07:52:53;;;;;;;3.43;2.00;;;9.90;1.00;;;;;;5095914;28;20429;-41
2024/02/09 07:55:21;;;;;;;5.50;1.67;;;10.00;1.00;;;;;;5096726;28;20758;-41
2024/02/09 07:57:48;;;;;;;2.40;1.63;;;10.00;1.00;;;;;;5095348;28;20426;-41
2024/02/09 08:00:18;;;;;;;3.70;1.87;;;10.10;1.00;;;;;;5092838;28;20457;-41
2024/02/09 08:02:44;;;;;;;3.83;2.27;;;10.10;1.00;;;;;;5093930;28;20441;-39
2024/02/09 08:05:17;;;;;;;3.03;1.67;;;10.30;1.00;;;;;;5095998;28;20748;-42
2024/02/09 08:07:49;;;;;;;1.50;1.20;;;10.40;1.00;;;;;;5096082;28;20911;-45
2024/02/09 08:10:15;;;;;;;3.43;1.63;;;10.70;1.00;;;;;;5096346;28;20414;-44
2024/02/09 08:12:41;;;;;;;3.60;1.90;;;11.30;1.00;;;;;;5095341;28;20696;-43
2024/02/09 08:15:11;;;;;;;3.93;1.67;;;11.80;99.90;;;;;;5093179;28;20804;-42
2024/02/09 08:17:45;;;;;;;2.80;1.57;;;11.90;99.90;;;;;;5096257;28;20479;-41
2024/02/09 08:20:11;;;;;;;4.47;1.80;;;11.60;99.90;;;;;;5095981;28;20442;-42
2024/02/09 08:22:43;;;;;;;2.90;1.40;;;11.40;99.90;;;;;;5095183;28;20418;-44
2024/02/09 08:25:09;;;;;;;3.60;1.60;;;11.30;99.90;;;;;;5095651;28;20168;-43
2024/02/09 08:27:35;;;;;;;2.83;1.80;;;11.30;99.90;;;;;;5094492;28;20554;-40
2024/02/09 08:30:00;;;;;;;4.40;1.80;;;11.40;99.90;;;;;;5075813;28;20172;-43
2024/02/09 08:32:27;;;;;;;2.50;2.20;;;11.60;44.40;;;;;;5094082;28;20429;-45
2024/02/09 08:34:53;;;;;;;3.53;1.73;;;11.60;62.80;;;;;;5094228;28;20268;-39
2024/02/09 08:37:24;;;;;;;2.97;1.70;;;11.70;1.00;;;;;;5094844;28;20458;-41
2024/02/09 08:39:50;;;;;;;6.73;1.90;;;11.60;34.60;;;;;;5095726;28;20801;-42
2024/02/09 08:42:18;;;;;;;2.70;1.50;;;11.70;1.00;;;;;;5095924;28;20468;-42
2024/02/09 08:44:44;;;;;;;5.23;1.97;;;11.80;1.00;;;;;;5078813;28;20708;-40
2024/02/09 08:47:13;;;;;;;1.93;1.50;;;11.90;1.00;;;;;;5094248;28;20477;-40
2024/02/09 08:49:39;;;;;;;4.00;2.10;;;12.00;1.00;;;;;;5096228;28;20433;-41
2024/02/09 08:52:05;;;;;;;4.13;2.00;;;12.10;1.00;;;;;;5074049;28;20468;-42
2024/02/09 08:54:33;;;;;;;2.07;1.43;;;12.30;1.00;;;;;;5055413;28;20451;-40
2024/02/09 08:57:00;;;;;;;2.43;1.40;;;12.60;99.90;;;;;;5075463;28;20415;-41
2024/02/09 08:59:26;;;;;;;2.87;1.60;;;13.00;1.00;;;;;;5074631;28;20419;-43
2024/02/09 09:01:52;;;;;;;3.60;1.50;;;13.30;99.90;;;;;;5073660;28;20706;-41
2024/02/09 09:04:18;;;;;;;3.43;2.10;;;13.40;1.00;;;;;;5073677;28;20177;-41
2024/02/09 09:06:44;;;;;;;6.93;2.07;;;13.30;55.60;;;;;;5072124;28;20376;-42
2024/02/09 09:09:14;;;;;;;2.23;1.40;;;13.30;1.00;;;;;;5072777;28;20423;-41
2024/02/09 09:11:40;;;;;;;2.63;1.77;;;13.60;99.90;;;;;;5072375;28;20436;-42
2024/02/09 09:14:05;;;;;;;3.27;1.57;;;13.70;1.00;;;;;;5073704;28;20443;-42
2024/02/09 09:16:31;;;;;;;2.83;1.40;;;13.30;99.90;;;;;;5071884;28;20181;-43
2024/02/09 09:18:57;;;;;;;5.90;1.80;;;13.20;1.00;;;;;;5072371;28;20455;-42
2024/02/09 09:21:22;;;;;;;3.97;1.67;;;13.20;99.90;;;;;;5072459;28;20169;-42
2024/02/09 09:23:48;;;;;;;2.80;1.60;;;13.30;99.90;;;;;;5074594;28;20539;-42
2024/02/09 09:26:14;;;;;;;2.03;1.67;;;13.30;1.00;;;;;;5076846;28;20273;-42
2024/02/09 09:28:40;;;;;;;4.23;2.07;;;13.30;1.00;;;;;;5078149;28;20983;-41
2024/02/09 09:31:06;;;;;;;3.13;1.70;;;13.30;1.00;;;;;;5077917;28;20467;-42
2024/02/09 09:33:34;;;;;;;3.27;1.90;;;13.30;1.00;;;;;;5078448;28;20422;-48
2024/02/09 09:36:00;;;;;;;5.30;2.13;;;13.40;1.00;;;;;;5079746;28;20188;-43
2024/02/09 09:38:26;;;;;;;2.70;1.57;;;13.50;1.00;;;;;;5078962;28;20423;-41
2024/02/09 09:40:55;;;;;;;2.67;1.50;;;13.40;99.90;;;;;;5078207;28;20177;-42
2024/02/09 09:43:24;;;;;;;3.73;1.63;;;13.30;87.70;;;;;;5078614;28;20434;-42
2024/02/09 09:45:56;;;;;;;4.20;1.60;;;13.30;1.00;;;;;;5078935;28;20427;-41
2024/02/09 09:48:23;;;;;;;2.10;1.60;;;13.30;1.00;;;;;;5078541;28;20475;-41
2024/02/09 09:50:50;;;;;;;2.60;1.60;;;13.40;1.00;;;;;;5077346;28;20466;-42
2024/02/09 09:53:20;;;;;;;2.77;1.70;;;13.40;99.90;;;;;;5078672;28;20852;-43
2024/02/09 09:55:46;;;;;;;3.67;1.70;;;13.50;1.00;;;;;;5077845;28;20518;-42
2024/02/09 09:58:12;;;;;;;3.40;1.70;;;13.70;1.00;;;;;;5076359;28;20453;-40
2024/02/09 10:00:40;;;;;;;5.13;1.77;;;13.90;1.00;;;;;;5076001;28;20419;-43
2024/02/09 10:03:07;;;;;;;3.90;1.73;;;14.10;99.90;;;;;;5077699;28;20232;-41
2024/02/09 10:05:35;;;;;;;2.23;1.50;;;14.00;1.00;;;;;;5076556;28;20426;-45
2024/02/09 10:08:01;;;;;;;2.30;1.80;;;13.80;28.00;;;;;;5075947;28;20612;-43
2024/02/09 10:10:28;;;;;;;4.40;2.00;;;13.60;1.00;;;;;;5077240;28;20430;-42
2024/02/09 10:13:12;;;;;;;3.67;2.27;;;13.30;1.00;;;;;;5078007;28;20415;-42
2024/02/09 10:15:41;;;;;;;3.07;2.10;;;13.30;99.90;;;;;;5076978;28;20516;-40
2024/02/09 10:18:10;;;;;;;3.67;1.70;;;13.30;1.00;;;;;;5076504;28;20431;-42
2024/02/09 10:20:38;;;;;;;2.37;1.40;;;13.30;92.50;;;;;;5075648;28;20451;-42
2024/02/09 10:23:04;;;;;;;4.70;2.17;;;13.30;99.90;;;;;;5078284;28;20485;-42
2024/02/09 10:25:34;;;;;;;2.80;1.63;;;13.20;1.00;;;;;;5077287;28;20479;-44
2024/02/09 10:28:05;;;;;;;5.83;1.90;;;13.20;99.90;;;;;;5075634;28;20476;-43
2024/02/09 10:30:31;;;;;;;4.70;1.40;;;13.40;99.90;;;;;;5075045;28;20496;-43
2024/02/09 10:32:57;;;;;;;6.13;1.83;;;13.30;99.90;;;;;;5057874;28;21064;-40
2024/02/09 10:35:23;;;;;;;3.20;1.40;;;13.50;1.00;;;;;;5074028;28;20180;-41
2024/02/09 10:37:49;;;;;;;5.30;2.00;;;13.30;1.00;;;;;;5076121;28;20695;-42
2024/02/09 10:40:16;;;;;;;5.70;1.70;;;13.40;1.00;;;;;;5075360;28;20430;-43
2024/02/09 10:42:44;;;;;;;1.70;1.43;;;13.60;99.90;;;;;;5074206;28;20511;-42
2024/02/09 10:45:11;;;;;;;2.03;1.53;;;13.80;1.00;;;;;;5075630;28;20438;-41
2024/02/09 10:47:40;;;;;;;3.37;1.90;;;13.90;1.00;;;;;;5078421;28;20534;-40
2024/02/09 10:50:07;;;;;;;2.70;1.67;;;14.20;88.60;;;;;;5075086;28;20610;-43
2024/02/09 10:52:37;;;;;;;3.10;1.53;;;14.20;99.90;;;;;;5095617;28;20423;-42
2024/02/09 10:55:08;;;;;;;2.37;1.40;;;14.20;99.90;;;;;;5093924;28;20657;-41
2024/02/09 10:57:34;;;;;;;3.53;1.50;;;14.10;1.00;;;;;;5095995;28;20483;-43
2024/02/09 11:00:00;;;;;;;3.13;1.30;;;13.90;1.00;;;;;;5060455;28;20415;-43
2024/02/09 11:02:29;;;;;;;2.83;1.40;;;13.90;1.00;;;;;;5096337;28;20476;-43
2024/02/09 11:04:57;;;;;;;3.73;2.03;;;13.80;1.00;;;;;;5096965;28;20434;-41
2024/02/09 11:07:23;;;;;;;2.00;1.20;;;13.80;99.90;;;;;;5079652;28;20517;-41
2024/02/09 11:09:49;;;;;;;2.57;1.40;;;13.70;1.00;;;;;;5077229;28;20537;-41
2024/02/09 11:12:19;;;;;;;3.20;1.60;;;13.70;99.90;;;;;;5095839;28;20668;-47
2024/02/09 11:14:48;;;;;;;4.10;1.70;;;13.60;1.00;;;;;;5095776;28;20192;-43
2024/02/09 11:17:18;;;;;;;4.33;2.00;;;13.70;99.90;;;;;;5096316;28;20434;-43
2024/02/09 11:19:44;;;;;;;2.93;1.20;;;13.60;1.00;;;;;;5095373;28;20433;-42
2024/02/09 11:22:11;;;;;;;2.30;1.37;;;13.80;1.00;;;;;;5093560;28;20461;-42
2024/02/09 11:24:38;;;;;;;2.20;1.43;;;13.80;99.90;;;;;;5096370;28;20912;-42
2024/02/09 11:27:05;;;;;;;3.93;1.30;;;13.80;71.40;;;;;;5094847;28;20466;-41
2024/02/09 11:29:32;;;;;;;3.17;2.13;;;13.80;61.50;;;;;;5093031;28;20451;-41
2024/02/09 11:32:02;;;;;;;3.57;2.97;;;13.80;1.00;;;;;;5094790;28;20426;-42
2024/02/09 11:34:33;;;;;;;2.67;1.60;;;13.90;1.00;;;;;;5074501;28;20430;-43
2024/02/09 11:37:02;;;;;;;4.00;1.37;;;13.80;1.00;;;;;;5055704;28;20614;-42
2024/02/09 11:39:28;;;;;;;1.80;1.37;;;13.70;1.00;;;;;;5092109;28;20836;-43
2024/02/09 11:41:54;;;;;;;4.47;1.20;;;13.60;44.70;;;;;;5074779;28;20418;-44
2024/02/09 11:44:21;;;;;;;1.50;1.03;;;13.50;99.90;;;;;;5094257;28;20483;-44
2024/02/09 11:46:48;;;;;;;2.60;1.83;;;13.50;1.00;;;;;;5094480;28;20516;-41
2024/02/09 11:49:14;;;;;;;2.23;1.30;;;13.30;1.00;;;;;;5095499;28;20481;-42
2024/02/09 11:51:40;;;;;;;2.03;1.17;;;13.10;71.70;;;;;;5076747;28;20467;-41
2024/02/09 11:54:10;;;;;;;3.73;1.60;;;13.10;99.90;;;;;;5093701;28;20430;-43
2024/02/09 11:56:36;;;;;;;1.53;1.20;;;13.00;1.00;;;;;;5075788;28;20650;-41
2024/02/09 11:59:05;;;;;;;2.40;1.37;;;13.00;1.00;;;;;;5092099;28;20856;-44
2024/02/09 12:01:32;;;;;;;2.80;1.70;;;13.10;99.90;;;;;;5060079;28;20491;-43
2024/02/09 12:03:58;;;;;;;2.90;1.20;;;13.10;99.90;;;;;;5060997;28;20423;-48
2024/02/09 12:06:24;;;;;;;3.00;2.10;;;13.50;99.90;;;;;;5077774;28;20558;-48
2024/02/09 12:08:50;;;;;;;1.57;1.10;;;13.60;1.00;;;;;;5094771;28;20402;-47
2024/02/09 12:11:18;;;;;;;3.00;1.20;;;13.70;99.90;;;;;;5094805;28;20418;-45
2024/02/09 12:13:45;;;;;;;2.03;1.60;;;14.00;99.90;;;;;;5094871;28;20424;-50
2024/02/09 12:16:11;;;;;;;2.80;1.43;;;14.30;1.00;;;;;;5094318;28;20429;-45
2024/02/09 12:18:37;;;;;;;4.27;1.83;;;14.40;99.90;;;;;;5121604;27;20855;-43
2024/02/09 12:21:03;;;;;;;4.03;2.20;;;14.40;1.00;;;;;;5133947;27;20704;-45
2024/02/09 12:23:28;;;;;;;2.20;1.50;;;14.40;1.00;;;;;;5133672;27;20175;-42
2024/02/09 12:25:57;;;;;;;3.30;1.50;;;14.10;24.70;;;;;;5133257;27;20428;-42
2024/02/09 12:28:28;;;;;;;4.50;1.50;;;13.90;1.00;;;;;;5132765;27;20207;-44
2024/02/09 12:30:53;;;;;;;2.57;1.70;;;13.70;99.90;;;;;;5131927;27;20729;-42
2024/02/09 12:33:21;;;;;;;2.33;1.67;;;13.50;1.00;;;;;;5133932;27;20455;-41
2024/02/09 12:35:47;;;;;;;4.27;1.90;;;13.30;99.90;;;;;;5131235;27;20177;-40
2024/02/09 12:38:20;;;;;;;2.80;1.50;;;13.10;99.90;;;;;;5114602;27;20427;-45
2024/02/09 12:40:46;;;;;;;2.17;1.67;;;13.00;99.90;;;;;;5134352;27;20503;-43
2024/02/09 12:43:12;;;;;;;4.67;1.70;;;12.90;1.00;;;;;;5134706;27;20440;-41
2024/02/09 12:45:39;;;;;;;2.23;1.50;;;12.90;1.00;;;;;;5117687;27;20715;-40
2024/02/09 12:48:06;;;;;;;2.70;2.00;;;12.80;1.00;;;;;;5136121;27;20460;-42
2024/02/09 12:50:33;;;;;;;2.80;1.57;;;12.80;28.10;;;;;;5134797;27;20421;-42
2024/02/09 12:52:59;;;;;;;2.17;1.63;;;12.80;1.00;;;;;;5130608;27;20420;-43
2024/02/09 12:55:25;;;;;;;4.20;1.63;;;12.90;59.40;;;;;;5131871;27;20428;-41
2024/02/09 12:57:52;;;;;;;2.10;1.60;;;12.90;99.90;;;;;;5133073;27;20721;-41
2024/02/09 13:00:21;;;;;;;2.90;1.63;;;12.90;99.90;;;;;;5133140;27;20195;-40
2024/02/09 13:02:47;;;;;;;2.23;1.70;;;12.90;1.00;;;;;;5130555;27;20404;-45
2024/02/09 13:05:12;;;;;;;2.60;1.67;;;12.80;5.20;;;;;;5132455;27;20435;-41
2024/02/09 13:07:38;;;;;;;2.87;1.90;;;12.90;99.90;;;;;;5134539;27;20203;-42
2024/02/09 13:10:04;;;;;;;3.37;1.83;;;12.90;9.50;;;;;;5134992;27;20196;-40
2024/02/09 13:12:30;;;;;;;6.53;2.20;;;12.90;1.00;;;;;;5133534;27;20457;-43
2024/02/09 13:14:55;;;;;;;3.83;1.50;;;12.90;1.00;;;;;;5132273;28;20413;-41
2024/02/09 13:17:22;;;;;;;3.07;2.00;;;12.90;3.60;;;;;;5133768;28;20230;-43
2024/02/09 13:19:48;;;;;;;2.63;1.70;;;13.00;1.00;;;;;;5133784;27;20251;-42
2024/02/09 13:22:15;;;;;;;3.03;2.13;;;12.90;1.00;;;;;;5132990;28;20436;-41
2024/02/09 13:24:45;;;;;;;7.00;2.73;;;12.90;1.00;;;;;;5132114;27;20174;-42
2024/02/09 13:27:13;;;;;;;3.30;1.80;;;12.90;1.00;;;;;;5132463;27;20492;-40
2024/02/09 13:29:42;;;;;;;4.10;1.70;;;12.90;53.60;;;;;;5132312;28;20407;-43
2024/02/09 13:32:09;;;;;;;2.87;1.87;;;12.90;1.00;;;;;;5132947;28;20425;-42
2024/02/09 13:34:35;;;;;;;3.03;2.10;;;12.80;99.90;;;;;;5131812;28;20447;-44
2024/02/09 13:37:00;;;;;;;4.30;2.27;;;12.80;99.90;;;;;;5133929;28;20420;-41
2024/02/09 13:39:26;;;;;;;3.63;2.00;;;12.80;1.00;;;;;;5133359;28;20445;-41
2024/02/09 13:41:55;;;;;;;3.27;2.10;;;12.80;99.90;;;;;;5133247;28;20312;-43
2024/02/09 13:44:21;;;;;;;2.50;1.67;;;12.90;1.00;;;;;;5133622;28;20755;-43
2024/02/09 13:46:46;;;;;;;2.80;1.63;;;12.90;1.00;;;;;;5132899;28;20460;-44
2024/02/09 13:49:13;;;;;;;3.30;1.87;;;13.00;1.00;;;;;;5134280;28;20204;-43
2024/02/09 13:51:39;;;;;;;2.93;1.70;;;13.00;1.00;;;;;;5134784;28;20176;-41
2024/02/09 13:54:05;;;;;;;6.07;2.13;;;13.00;1.00;;;;;;5117836;28;20739;-41
2024/02/09 13:56:32;;;;;;;2.60;2.10;;;12.90;1.00;;;;;;5134328;27;20163;-42
2024/02/09 13:59:00;;;;;;;3.20;2.00;;;13.00;1.00;;;;;;5134798;28;20440;-41
2024/02/09 14:01:27;;;;;;;3.70;1.93;;;13.00;1.00;;;;;;5135140;28;20433;-42
2024/02/09 14:03:54;;;;;;;4.03;2.17;;;13.10;1.00;;;;;;5132227;28;20425;-41
2024/02/09 14:06:20;;;;;;;2.80;1.57;;;13.10;1.00;;;;;;5135064;27;20182;-41
2024/02/09 14:08:46;;;;;;;3.80;1.90;;;13.30;1.00;;;;;;5117138;28;20722;-44
2024/02/09 14:11:23;;;;;;;4.30;2.00;;;13.20;99.90;;;;;;5135073;27;20475;-42
2024/02/09 14:13:56;;;;;;;4.77;2.33;;;13.10;99.90;;;;;;5138987;27;20440;-42
2024/02/09 14:16:35;;;;;;;2.37;1.90;;;13.10;99.90;;;;;;5138119;27;20435;-41
2024/02/09 14:19:09;;;;;;;4.03;2.37;;;13.10;99.90;;;;;;5137958;27;20480;-42
2024/02/09 14:21:34;;;;;;;3.73;2.10;;;13.10;99.90;;;;;;5139725;27;20436;-42
2024/02/09 14:24:00;;;;;;;2.70;1.93;;;13.00;99.90;;;;;;5122236;27;20442;-42
2024/02/09 14:26:37;;;;;;;3.80;2.07;;;12.90;93.60;;;;;;5120392;27;20664;-41
2024/02/09 14:29:21;;;;;;;3.60;1.90;;;13.00;86.40;;;;;;5121838;27;20438;-41
2024/02/09 14:31:48;;;;;;;3.90;1.80;;;13.00;99.90;;;;;;5138729;27;20496;-38
2024/02/09 14:34:14;;;;;;;4.97;2.27;;;13.20;16.90;;;;;;5136036;27;20481;-39
2024/02/09 14:36:41;;;;;;;3.47;2.93;;;13.30;99.90;;;;;;5120719;27;20429;-43
2024/02/09 14:39:07;;;;;;;3.27;2.10;;;13.40;1.00;;;;;;5136373;27;20421;-41
2024/02/09 14:41:38;;;;;;;4.57;1.90;;;13.50;1.00;;;;;;5118775;27;20420;-44
2024/02/09 14:44:04;;;;;;;5.30;2.70;;;13.40;99.90;;;;;;5119550;27;20485;-43
2024/02/09 14:46:30;;;;;;;5.87;2.10;;;13.40;1.00;;;;;;5136289;27;20498;-42
2024/02/09 14:48:56;;;;;;;4.80;2.20;;;13.30;99.90;;;;;;5120945;27;20421;-42